Time;durP1;ratioP1;P1;durP2;ratioP2;P2;SDS_P1;SDS_P2;PMS_P1;PMS_P2;Temp;Humidity;BMP_temperature;BMP_pressure;BME280_temperature;BME280_humidity;BME280_pressure;Samples;Min_cycle;Max_cycle;Signal;HPM_P1;HPM_P2
2022/08/30 00:01:31;;;;;;;8.32;5.22;;;;;;;18.17;100.00;101944.47;5277347;28;20104;-70
2022/08/30 00:04:06;;;;;;;10.13;5.15;;;;;;;18.09;100.00;101931.97;5278784;28;20020;-69
2022/08/30 00:06:37;;;;;;;7.75;5.00;;;;;;;18.08;100.00;101927.66;5278301;28;20020;-69
2022/08/30 00:09:09;;;;;;;10.80;5.53;;;;;;;18.03;100.00;101926.44;5278355;28;20098;-70
2022/08/30 00:11:40;;;;;;;11.10;5.20;;;;;;;18.00;100.00;101930.25;5277588;28;20035;-70
2022/08/30 00:14:11;;;;;;;9.75;5.13;;;;;;;18.01;100.00;101936.38;5279027;28;20028;-70
2022/08/30 00:16:43;;;;;;;9.73;4.85;;;;;;;17.94;100.00;101936.16;5279078;28;20111;-70
2022/08/30 00:19:14;;;;;;;11.30;5.32;;;;;;;17.97;100.00;101926.06;5278027;28;20102;-70
2022/08/30 00:21:45;;;;;;;8.27;4.90;;;;;;;17.95;100.00;101935.16;5278097;28;20435;-70
2022/08/30 00:24:17;;;;;;;9.02;5.03;;;;;;;17.98;100.00;101932.22;5276157;28;20050;-70
2022/08/30 00:26:48;;;;;;;11.63;5.03;;;;;;;17.91;100.00;101934.63;5279027;28;20030;-71
2022/08/30 00:29:19;;;;;;;8.35;5.13;;;;;;;17.84;100.00;101940.69;5278930;28;20378;-70
2022/08/30 00:31:51;;;;;;;10.23;5.10;;;;;;;17.87;100.00;101938.56;5276562;28;20756;-70
2022/08/30 00:34:22;;;;;;;11.13;5.47;;;;;;;17.84;100.00;101932.72;5278139;28;20313;-70
2022/08/30 00:36:53;;;;;;;6.47;4.65;;;;;;;17.70;100.00;101919.00;5278602;28;20166;-70
2022/08/30 00:39:25;;;;;;;8.50;4.95;;;;;;;17.76;100.00;101930.84;5259527;28;20031;-70
2022/08/30 00:41:56;;;;;;;9.45;4.78;;;;;;;17.75;100.00;101932.66;5259434;28;20471;-70
2022/08/30 00:44:28;;;;;;;9.10;5.22;;;;;;;17.76;100.00;101938.78;5278034;28;20102;-70
2022/08/30 00:46:59;;;;;;;4.90;4.15;;;;;;;17.85;100.00;101937.06;5278075;28;20375;-70
2022/08/30 00:49:33;;;;;;;9.93;4.95;;;;;;;17.82;100.00;101942.66;5277505;28;20059;-70
2022/08/30 00:52:06;;;;;;;7.53;4.88;;;;;;;17.75;100.00;101932.66;5277473;28;20475;-70
2022/08/30 00:54:40;;;;;;;7.75;4.85;;;;;;;17.82;100.00;101937.38;5277543;28;20102;-69
2022/08/30 00:57:13;;;;;;;8.23;4.82;;;;;;;17.79;100.00;101935.00;5277932;28;20043;-69
2022/08/30 00:59:46;;;;;;;;;;;;;;;18.48;100.00;101939.56;5277862;28;20041;-69
2022/08/30 01:02:21;;;;;;;7.30;4.37;;;;;;;17.96;100.00;101948.28;5275788;28;19920;-69
2022/08/30 01:04:54;;;;;;;11.55;4.63;;;;;;;17.86;100.00;101934.25;5278050;28;20368;-69
2022/08/30 01:07:25;;;;;;;7.90;4.40;;;;;;;17.89;100.00;101935.78;5249933;28;20361;-69
2022/08/30 01:09:56;;;;;;;8.25;4.78;;;;;;;17.93;100.00;101939.78;5277746;28;20101;-69
2022/08/30 01:12:28;;;;;;;8.25;4.40;;;;;;;17.96;100.00;101944.81;5277211;28;20024;-69
2022/08/30 01:15:00;;;;;;;8.10;4.40;;;;;;;17.86;100.00;101939.56;5277358;28;20364;-69
2022/08/30 01:17:33;;;;;;;7.63;4.22;;;;;;;17.92;100.00;101954.88;5277250;28;20031;-69
2022/08/30 01:20:09;;;;;;;10.00;4.95;;;;;;;18.00;100.00;101948.81;5250164;28;20048;-69
2022/08/30 01:22:49;;;;;;;8.30;4.35;;;;;;;18.09;100.00;101949.72;5276876;28;20031;-69
2022/08/30 01:25:26;;;;;;;8.68;4.25;;;;;;;17.94;100.00;101941.47;5274190;28;20020;-69
2022/08/30 01:28:04;;;;;;;9.80;4.82;;;;;;;17.90;100.00;101945.41;5276110;28;20123;-69
2022/08/30 01:30:41;;;;;;;10.43;4.43;;;;;;;17.84;100.00;101936.25;5277860;28;20103;-69
2022/08/30 01:33:13;;;;;;;7.82;4.30;;;;;;;17.84;100.00;101936.25;5275806;28;20029;-69
2022/08/30 01:35:55;;;;;;;7.32;4.63;;;;;;;17.97;100.00;101944.63;5277610;28;20035;-69
2022/08/30 01:38:48;;;;;;;6.37;4.47;;;;;;;17.89;100.00;101935.78;5277288;28;20029;-70
2022/08/30 01:41:26;;;;;;;7.13;4.35;;;;;;;17.88;100.00;101931.44;5274501;28;20036;-69
2022/08/30 01:44:00;;;;;;;7.93;4.60;;;;;;;17.82;100.00;101946.16;5276841;28;20513;-69
2022/08/30 01:46:35;;;;;;;8.50;4.20;;;;;;;17.90;100.00;101948.03;5277235;28;20036;-69
2022/08/30 01:49:14;;;;;;;7.70;4.53;;;;;;;17.86;100.00;101952.00;5277621;28;20048;-69
2022/08/30 01:51:45;;;;;;;6.43;3.47;;;;;;;17.79;100.00;101945.63;5275634;28;20077;-69
2022/08/30 01:54:17;;;;;;;10.75;4.25;;;;;;;17.72;100.00;101948.00;5275997;28;20021;-70
2022/08/30 01:56:48;;;;;;;7.43;4.45;;;;;;;17.77;100.00;101943.13;5277321;28;20016;-70
2022/08/30 01:59:19;;;;;;;7.25;4.20;;;;;;;17.81;100.00;101938.38;5298469;22;20056;-66
2022/08/30 02:01:51;;;;;;;10.13;4.93;;;;;;;17.85;100.00;101932.59;5269846;28;20016;-69
2022/08/30 02:04:22;;;;;;;9.98;3.95;;;;;;;17.80;100.00;101941.97;5274045;28;20270;-69
2022/08/30 02:06:53;;;;;;;5.68;3.88;;;;;;;17.78;100.00;101936.00;5274319;28;20045;-69
2022/08/30 02:09:25;;;;;;;6.53;4.18;;;;;;;17.74;100.00;101936.28;5275318;28;20386;-69
2022/08/30 02:11:56;;;;;;;6.53;4.22;;;;;;;17.73;100.00;101934.59;5271317;28;20050;-69
2022/08/30 02:14:28;;;;;;;9.40;4.32;;;;;;;17.75;100.00;101935.31;5271138;28;20020;-69
2022/08/30 02:16:59;;;;;;;7.10;4.22;;;;;;;17.68;100.00;101931.56;5271633;28;20020;-69
2022/08/30 02:19:31;;;;;;;9.40;4.40;;;;;;;17.65;100.00;101926.59;5274267;28;20020;-69
2022/08/30 02:22:03;;;;;;;10.10;5.03;;;;;;;17.59;100.00;101932.47;5270785;28;20556;-69
2022/08/30 02:24:34;;;;;;;6.72;4.35;;;;;;;17.56;100.00;101938.06;5266314;28;20485;-69
2022/08/30 02:27:06;;;;;;;7.57;4.40;;;;;;;17.57;100.00;101933.59;5255820;28;20016;-69
2022/08/30 02:29:37;;;;;;;6.85;4.30;;;;;;;17.54;100.00;101932.09;5271911;28;20033;-69
2022/08/30 02:32:08;;;;;;;7.03;4.78;;;;;;;17.59;100.00;101935.13;5267488;28;20028;-69
2022/08/30 02:34:39;;;;;;;8.30;4.95;;;;;;;17.54;100.00;101921.50;5269196;28;20461;-69
2022/08/30 02:37:11;;;;;;;8.85;4.60;;;;;;;17.52;100.00;101936.69;5273320;28;20063;-69
2022/08/30 02:39:42;;;;;;;6.03;4.22;;;;;;;17.51;100.00;101935.88;5269384;28;20052;-69
2022/08/30 02:42:14;;;;;;;7.63;4.57;;;;;;;17.54;100.00;101928.59;5268607;28;20112;-68
2022/08/30 02:44:45;;;;;;;7.90;4.78;;;;;;;17.40;100.00;101916.69;5269060;28;20350;-69
2022/08/30 02:47:16;;;;;;;7.85;4.90;;;;;;;17.54;100.00;101923.28;5271641;28;20479;-69
2022/08/30 02:49:47;;;;;;;8.05;5.10;;;;;;;17.54;100.00;101924.16;5270685;28;20367;-69
2022/08/30 02:52:19;;;;;;;6.60;5.15;;;;;;;17.50;100.00;101925.41;5273649;28;20452;-69
2022/08/30 02:54:50;;;;;;;8.40;5.25;;;;;;;17.49;100.00;101923.75;5274602;28;20487;-69
2022/08/30 02:57:22;;;;;;;5.85;4.65;;;;;;;17.46;100.00;101924.88;5256730;28;20454;-69
2022/08/30 02:59:53;;;;;;;8.68;5.28;;;;;;;17.48;100.00;101914.97;5274858;28;20520;-69
2022/08/30 03:02:24;;;;;;;5.60;4.68;;;;;;;17.37;100.00;101911.69;5269649;28;20021;-69
2022/08/30 03:04:56;;;;;;;8.52;5.07;;;;;;;17.37;100.00;101909.88;5272724;28;20505;-69
2022/08/30 03:07:27;;;;;;;6.68;5.13;;;;;;;17.32;100.00;101917.44;5275020;28;20158;-69
2022/08/30 03:09:59;;;;;;;6.63;5.22;;;;;;;17.26;100.00;101915.38;5274471;28;20127;-69
2022/08/30 03:12:33;;;;;;;7.70;4.78;;;;;;;17.25;100.00;101909.25;5272353;28;20020;-69
2022/08/30 03:15:06;;;;;;;7.43;5.18;;;;;;;17.16;100.00;101910.13;5272889;28;20112;-69
2022/08/30 03:17:38;;;;;;;9.70;4.82;;;;;;;17.21;100.00;101910.53;5275244;28;20040;-68
2022/08/30 03:20:10;;;;;;;7.95;4.95;;;;;;;17.27;100.00;101909.09;5275344;28;20029;-69
2022/08/30 03:22:42;;;;;;;7.10;5.60;;;;;;;17.25;100.00;101905.75;5274992;28;20119;-68
2022/08/30 03:25:13;;;;;;;8.43;5.57;;;;;;;17.29;100.00;101908.94;5269419;28;21350;-69
2022/08/30 03:27:44;;;;;;;7.53;5.50;;;;;;;17.32;100.00;101913.97;5274887;28;20050;-69
2022/08/30 03:30:19;;;;;;;5.47;4.97;;;;;;;17.49;100.00;101906.03;5274119;28;20013;-69
2022/08/30 03:32:50;;;;;;;5.43;4.80;;;;;;;17.39;100.00;101909.75;5272163;28;20028;-69
2022/08/30 03:35:22;;;;;;;9.10;5.10;;;;;;;17.36;100.00;101910.03;5274814;28;20035;-69
2022/08/30 03:37:53;;;;;;;8.40;6.70;;;;;;;17.40;100.00;101914.88;5275005;28;20021;-69
2022/08/30 03:40:24;;;;;;;7.18;5.70;;;;;;;17.24;100.00;101898.81;5271560;28;20063;-69
2022/08/30 03:42:56;;;;;;;6.72;5.15;;;;;;;17.24;100.00;101899.63;5273592;28;20025;-69
2022/08/30 03:45:27;;;;;;;8.07;5.28;;;;;;;17.26;100.00;101905.59;5275096;28;20020;-69
2022/08/30 03:48:01;;;;;;;7.15;5.80;;;;;;;17.26;100.00;101908.25;5256059;28;20535;-69
2022/08/30 03:50:34;;;;;;;6.43;4.60;;;;;;;17.26;100.00;101908.25;5272768;28;20074;-69
2022/08/30 03:53:05;;;;;;;6.75;5.88;;;;;;;17.24;100.00;101906.75;5272957;28;20370;-69
2022/08/30 03:55:36;;;;;;;10.13;5.72;;;;;;;17.30;100.00;101911.44;5269504;28;20021;-69
2022/08/30 03:58:07;;;;;;;7.15;5.53;;;;;;;17.30;100.00;101914.09;5270630;28;20059;-69
2022/08/30 04:00:39;;;;;;;9.07;5.47;;;;;;;17.29;100.00;101914.25;5272511;28;20040;-69
2022/08/30 04:03:10;;;;;;;7.28;5.65;;;;;;;17.32;100.00;101911.31;5253551;28;20020;-69
2022/08/30 04:05:41;;;;;;;7.90;5.70;;;;;;;17.31;100.00;101906.97;5271345;28;20596;-68
2022/08/30 04:08:12;;;;;;;8.90;5.65;;;;;;;17.26;100.00;101912.72;5269002;28;20487;-69
2022/08/30 04:10:44;;;;;;;8.73;5.78;;;;;;;17.22;100.00;101906.88;5271971;28;20474;-69
2022/08/30 04:13:15;;;;;;;9.15;5.88;;;;;;;17.21;100.00;101907.03;5272257;28;20024;-69
2022/08/30 04:15:47;;;;;;;7.93;6.57;;;;;;;17.14;100.00;101906.78;5271912;28;20123;-69
2022/08/30 04:18:18;;;;;;;10.63;6.05;;;;;;;17.11;100.00;101907.06;5273159;28;20047;-68
2022/08/30 04:20:50;;;;;;;7.85;6.75;;;;;;;17.08;100.00;101906.53;5255944;28;20539;-68
2022/08/30 04:23:22;;;;;;;11.13;6.05;;;;;;;17.10;100.00;101905.41;5270564;28;20125;-69
2022/08/30 04:25:54;;;;;;;8.98;6.97;;;;;;;17.14;100.00;101912.09;5271188;28;20062;-68
2022/08/30 04:28:25;;;;;;;7.55;6.20;;;;;;;17.12;100.00;101919.38;5272865;28;20090;-69
2022/08/30 04:30:57;;;;;;;8.05;6.65;;;;;;;17.13;100.00;101923.66;5272476;28;20121;-68
2022/08/30 04:33:28;;;;;;;7.25;6.55;;;;;;;17.12;100.00;101914.06;5268512;28;20024;-68
2022/08/30 04:36:03;;;;;;;7.35;6.45;;;;;;;17.19;100.00;101923.06;5271867;28;20099;-69
2022/08/30 04:38:36;;;;;;;8.05;6.57;;;;;;;17.07;100.00;101916.31;5273444;28;20013;-69
2022/08/30 04:41:12;;;;;;;;;;;;;;;17.77;100.00;101929.88;5273613;28;20036;-69
2022/08/30 04:43:45;;;;;;;6.75;6.05;;;;;;;17.22;100.00;101929.88;5270176;28;19923;-69
2022/08/30 04:46:17;;;;;;;;;;;;;;;17.80;100.00;101931.38;5272958;28;20055;-69
2022/08/30 04:48:48;;;;;;;8.57;6.45;;;;;;;17.22;100.00;101933.38;5274355;28;19919;-69
2022/08/30 04:51:20;;;;;;;10.32;7.32;;;;;;;17.21;100.00;101937.00;5271771;28;20028;-69
2022/08/30 04:53:51;;;;;;;7.22;6.45;;;;;;;17.09;100.00;101930.25;5267591;28;20033;-69
2022/08/30 04:56:24;;;;;;;7.38;6.65;;;;;;;17.11;100.00;101933.56;5270037;28;20025;-69
2022/08/30 04:58:55;;;;;;;9.73;7.45;;;;;;;17.12;100.00;101937.91;5272760;28;20135;-68
2022/08/30 05:01:30;;;;;;;8.35;6.80;;;;;;;17.11;100.00;101941.50;5269116;28;20112;-69
2022/08/30 05:04:03;;;;;;;8.25;7.45;;;;;;;16.98;100.00;101938.38;5270917;28;20475;-69
2022/08/30 05:06:34;;;;;;;9.55;7.78;;;;;;;17.03;100.00;101936.09;5254639;28;20021;-69
2022/08/30 05:09:05;;;;;;;8.15;7.35;;;;;;;17.06;100.00;101935.00;5265294;28;20427;-69
2022/08/30 05:11:37;;;;;;;8.32;7.00;;;;;;;16.92;100.00;101934.47;5270974;28;20020;-69
2022/08/30 05:14:09;;;;;;;8.07;7.27;;;;;;;16.96;100.00;101945.59;5269302;28;20033;-69
2022/08/30 05:16:40;;;;;;;12.25;8.18;;;;;;;16.95;100.00;101941.28;5269945;28;20026;-68
2022/08/30 05:19:12;;;;;;;8.90;8.10;;;;;;;16.94;100.00;101952.88;5272591;28;20028;-69
2022/08/30 05:21:43;;;;;;;8.50;7.68;;;;;;;16.98;100.00;101944.50;5273260;28;20020;-69
2022/08/30 05:24:14;;;;;;;7.97;7.15;;;;;;;17.00;100.00;101945.16;5250927;28;20025;-69
2022/08/30 05:26:45;;;;;;;9.13;8.23;;;;;;;16.99;100.00;101954.09;5271610;28;20848;-69
2022/08/30 05:29:17;;;;;;;9.20;8.30;;;;;;;17.01;100.00;101959.25;5272135;28;20036;-69
2022/08/30 05:31:48;;;;;;;9.10;8.18;;;;;;;17.05;100.00;101962.41;5271285;28;20028;-69
2022/08/30 05:34:19;;;;;;;8.55;7.78;;;;;;;17.10;100.00;101953.09;5269105;28;20107;-68
2022/08/30 05:36:52;;;;;;;9.05;7.72;;;;;;;17.13;100.00;101962.56;5270477;28;20008;-68
2022/08/30 05:39:23;;;;;;;9.43;8.55;;;;;;;17.06;100.00;101964.94;5270155;28;20434;-69
2022/08/30 05:41:56;;;;;;;8.52;7.72;;;;;;;17.10;100.00;101960.19;5269317;28;20039;-68
2022/08/30 05:44:27;;;;;;;8.27;7.57;;;;;;;17.11;100.00;101957.38;5263499;28;20078;-68
2022/08/30 05:46:58;;;;;;;12.18;9.60;;;;;;;17.12;100.00;101960.88;5271660;28;20044;-68
2022/08/30 05:49:30;;;;;;;9.15;8.15;;;;;;;17.02;100.00;101961.75;5273079;28;20510;-68
2022/08/30 05:52:03;;;;;;;9.35;8.35;;;;;;;17.07;100.00;101961.31;5268576;28;20035;-69
2022/08/30 05:54:34;;;;;;;12.00;8.82;;;;;;;17.07;100.00;101953.38;5272431;28;20020;-69
2022/08/30 05:57:05;;;;;;;9.63;8.73;;;;;;;17.08;100.00;101955.03;5271347;28;20520;-69
2022/08/30 05:59:37;;;;;;;11.00;9.68;;;;;;;17.12;100.00;101961.72;5272051;28;20410;-68
2022/08/30 06:02:08;;;;;;;10.05;8.85;;;;;;;17.13;100.00;101960.75;5269107;28;20052;-69
2022/08/30 06:04:39;;;;;;;10.38;9.40;;;;;;;17.20;100.00;101961.81;5269647;28;20013;-69
2022/08/30 06:07:11;;;;;;;11.25;9.05;;;;;;;17.26;100.00;101958.56;5267082;28;20052;-68
2022/08/30 06:09:43;;;;;;;9.85;8.85;;;;;;;17.37;100.00;101954.06;5271067;28;20050;-68
2022/08/30 06:12:14;;;;;;;9.82;8.82;;;;;;;17.39;100.00;101963.56;5269438;28;20027;-68
2022/08/30 06:14:46;;;;;;;10.98;9.27;;;;;;;17.44;100.00;101960.44;5271601;28;20075;-69
2022/08/30 06:17:17;;;;;;;10.40;9.35;;;;;;;17.52;100.00;101957.88;5272915;28;20036;-69
2022/08/30 06:19:48;;;;;;;11.00;9.87;;;;;;;17.50;100.00;101970.44;5270592;28;20478;-69
2022/08/30 06:22:19;;;;;;;10.82;9.82;;;;;;;17.55;100.00;101967.38;5266944;28;20671;-69
2022/08/30 06:24:51;;;;;;;10.32;9.43;;;;;;;17.64;100.00;101961.16;5252713;28;20016;-68
2022/08/30 06:27:22;;;;;;;10.57;9.55;;;;;;;17.67;100.00;101963.53;5273721;28;20103;-68
2022/08/30 06:29:53;;;;;;;10.48;9.38;;;;;;;17.74;100.00;101965.44;5274152;28;20470;-68
2022/08/30 06:32:24;;;;;;;11.32;9.27;;;;;;;17.78;100.00;101957.22;5274035;28;20580;-69
2022/08/30 06:34:56;;;;;;;12.07;10.00;;;;;;;17.86;100.00;101958.13;5273458;28;20032;-69
2022/08/30 06:37:27;;;;;;;10.23;9.05;;;;;;;17.87;100.00;101959.78;5274470;28;20024;-69
2022/08/30 06:40:00;;;;;;;10.10;9.20;;;;;;;17.93;100.00;101963.66;5270965;28;20023;-69
2022/08/30 06:42:32;;;;;;;10.75;9.63;;;;;;;17.90;100.00;101956.00;5274835;28;20028;-69
2022/08/30 06:45:04;;;;;;;10.43;9.43;;;;;;;18.00;100.00;101962.06;5276101;28;20016;-69
2022/08/30 06:47:36;;;;;;;12.85;9.85;;;;;;;18.04;100.00;101960.78;5275719;28;20025;-69
2022/08/30 06:50:09;;;;;;;11.27;10.05;;;;;;;18.14;100.00;101958.03;5274161;28;20036;-69
2022/08/30 06:52:42;;;;;;;11.48;10.30;;;;;;;17.95;100.00;101948.41;5276018;28;20036;-69
2022/08/30 06:55:15;;;;;;;11.45;10.15;;;;;;;18.02;100.00;101954.78;5272799;28;20044;-69
2022/08/30 06:57:46;;;;;;;10.90;9.90;;;;;;;18.17;100.00;101957.72;5274085;28;20491;-69
2022/08/30 07:00:18;;;;;;;12.35;10.50;;;;;;;18.26;100.00;101956.84;5275686;28;20044;-69
2022/08/30 07:02:49;;;;;;;13.55;10.95;;;;;;;18.40;100.00;101961.56;5252664;28;20172;-70
2022/08/30 07:05:22;;;;;;;11.30;9.73;;;;;;;18.53;100.00;101966.50;5272143;28;20033;-69
2022/08/30 07:07:53;;;;;;;;;;;;;;;19.08;100.00;101960.88;5275956;28;20317;-69
2022/08/30 07:10:25;;;;;;;12.13;10.10;;;;;;;18.76;100.00;101958.88;5274734;28;20379;-69
2022/08/30 07:12:56;;;;;;;11.55;9.35;;;;;;;18.79;100.00;101961.22;5270386;28;20399;-69
2022/08/30 07:15:27;;;;;;;11.02;9.90;;;;;;;19.01;100.00;101957.19;5270838;28;20552;-69
2022/08/30 07:20:48;;;;;;;13.75;9.68;;;;;;;19.23;100.00;101970.91;5274922;28;20051;-69
2022/08/30 07:23:20;;;;;;;11.02;9.43;;;;;;;19.32;100.00;101969.94;5271305;28;20056;-69
2022/08/30 07:25:51;;;;;;;9.80;8.77;;;;;;;19.33;100.00;101982.25;5276054;28;20013;-69
2022/08/30 07:28:22;;;;;;;10.03;8.77;;;;;;;19.43;100.00;101977.63;5275149;28;20032;-69
2022/08/30 07:30:53;;;;;;;10.00;8.90;;;;;;;19.43;100.00;101985.59;5275747;28;20017;-69
2022/08/30 07:33:25;;;;;;;9.60;7.78;;;;;;;19.46;100.00;101974.63;5268385;28;20131;-69
2022/08/30 07:35:58;;;;;;;9.37;7.43;;;;;;;19.55;100.00;101973.69;5277634;28;20025;-69
2022/08/30 07:38:30;;;;;;;9.90;7.82;;;;;;;19.58;100.00;101973.34;5272535;28;20500;-69
2022/08/30 07:41:01;;;;;;;9.70;8.32;;;;;;;19.71;100.00;101969.44;5267442;28;20121;-68
2022/08/30 07:43:33;;;;;;;8.57;7.72;;;;;;;19.80;100.00;101977.25;5269955;28;20035;-69
2022/08/30 07:46:06;;;;;;;9.45;7.10;;;;;;;19.91;100.00;101973.47;5273535;28;20024;-69
2022/08/30 07:48:37;;;;;;;8.30;7.50;;;;;;;20.04;100.00;101965.84;5276227;28;20027;-69
2022/08/30 07:51:12;;;;;;;11.93;7.80;;;;;;;20.24;100.00;101970.84;5272986;28;20134;-69
2022/08/30 07:53:43;;;;;;;7.68;6.97;;;;;;;20.27;100.00;101973.19;5273431;28;20671;-69
2022/08/30 07:56:15;;;;;;;7.85;7.15;;;;;;;20.23;100.00;101967.34;5274468;28;20024;-69
2022/08/30 07:58:47;;;;;;;8.73;7.43;;;;;;;20.22;100.00;101972.81;5275404;28;20044;-69
2022/08/30 08:01:19;;;;;;;8.87;7.30;;;;;;;20.30;100.00;101978.13;5269915;28;20016;-69
2022/08/30 08:03:51;;;;;;;12.30;7.45;;;;;;;20.33;100.00;101980.47;5270363;28;20112;-69
2022/08/30 08:06:23;;;;;;;7.97;7.10;;;;;;;20.49;100.00;101984.97;5275740;28;20099;-69
2022/08/30 08:08:56;;;;;;;9.02;6.72;;;;;;;20.59;100.00;101986.47;5275417;28;20056;-69
2022/08/30 08:11:28;;;;;;;8.60;6.72;;;;;;;20.64;100.00;101983.31;5270153;28;20079;-69
2022/08/30 08:13:59;;;;;;;8.60;6.63;;;;;;;20.70;100.00;101982.63;5269925;28;20032;-69
2022/08/30 08:16:33;;;;;;;7.63;6.63;;;;;;;20.80;99.14;101982.47;5275527;28;20566;-69
2022/08/30 08:19:07;;;;;;;9.45;6.40;;;;;;;20.69;96.67;101978.31;5275454;28;20051;-69
2022/08/30 08:21:39;;;;;;;10.10;6.32;;;;;;;20.69;95.27;101978.31;5272605;28;20028;-69
2022/08/30 08:24:10;;;;;;;12.23;6.33;;;;;;;20.80;94.86;101993.94;5273941;28;20040;-69
2022/08/30 08:26:41;;;;;;;9.00;6.33;;;;;;;20.76;93.68;101991.78;5274192;28;20025;-69
2022/08/30 08:29:13;;;;;;;7.50;6.70;;;;;;;20.80;93.59;101996.63;5273935;28;20095;-69
2022/08/30 08:31:45;;;;;;;7.27;6.03;;;;;;;20.85;93.12;101990.78;5273843;28;20020;-69
2022/08/30 08:34:18;;;;;;;7.50;6.70;;;;;;;20.92;92.38;101990.94;5269607;28;20368;-69
2022/08/30 08:36:49;;;;;;;12.23;5.90;;;;;;;21.06;93.02;101993.72;5272161;28;20032;-69
2022/08/30 08:39:21;;;;;;;9.00;6.03;;;;;;;21.14;91.08;101999.03;5273225;28;20020;-69
2022/08/30 08:42:23;;;;;;;6.53;5.70;;;;;;;21.54;89.65;101994.53;5274449;28;20494;-69
2022/08/30 08:44:57;;;;;;;8.40;6.00;;;;;;;21.46;87.48;101997.25;5262719;28;20502;-69
2022/08/30 08:47:46;;;;;;;8.15;5.38;;;;;;;21.67;87.30;101990.47;5275064;28;20095;-69
2022/08/30 08:50:19;;;;;;;10.60;5.30;;;;;;;21.68;86.01;101997.50;5273726;28;20077;-70
2022/08/30 08:56:07;;;;;;;7.20;5.28;;;;;;;21.90;82.65;102004.69;5273379;28;20068;-69
2022/08/30 08:58:48;;;;;;;6.63;4.65;;;;;;;22.15;81.95;101993.88;5274573;28;20094;-69
2022/08/30 09:01:24;;;;;;;6.57;4.55;;;;;;;22.31;80.66;101999.94;5272501;28;20395;-68
2022/08/30 09:03:57;;;;;;;5.65;4.18;;;;;;;22.34;77.13;101990.72;5254549;28;20025;-69
2022/08/30 09:06:31;;;;;;;6.57;4.57;;;;;;;22.49;76.52;101991.56;5274645;28;20032;-69
2022/08/30 09:09:03;;;;;;;7.07;4.60;;;;;;;22.50;75.37;101997.75;5272467;28;20031;-69
2022/08/30 09:11:36;;;;;;;6.43;3.97;;;;;;;22.72;74.88;101993.38;5274342;28;20016;-69
2022/08/30 09:14:20;;;;;;;6.22;4.30;;;;;;;22.82;73.87;101997.44;5273791;28;20078;-69
2022/08/30 09:17:04;;;;;;;4.72;4.10;;;;;;;22.85;72.29;101998.94;5273326;28;20066;-70
2022/08/30 09:19:59;;;;;;;4.63;3.75;;;;;;;23.08;72.02;101987.34;5270700;28;20032;-69
2022/08/30 09:22:34;;;;;;;6.18;3.72;;;;;;;23.00;70.86;101999.78;5261791;28;20514;-69
2022/08/30 09:25:11;;;;;;;5.57;3.92;;;;;;;23.17;70.96;102000.44;5268559;28;20020;-69
2022/08/30 09:27:45;;;;;;;5.72;3.42;;;;;;;23.30;69.21;101995.28;5272207;28;20410;-70
2022/08/30 09:30:20;;;;;;;5.65;3.25;;;;;;;23.54;68.84;101996.78;5257339;28;20024;-69
2022/08/30 09:32:55;;;;;;;9.82;3.70;;;;;;;23.52;65.63;102001.50;5273786;28;20016;-70
2022/08/30 09:35:48;;;;;;;5.13;3.08;;;;;;;23.86;67.91;101985.84;5270384;28;20025;-69
2022/08/30 09:38:27;;;;;;;7.35;2.88;;;;;;;24.03;65.92;101985.41;5272528;28;20551;-69
2022/08/30 09:41:20;;;;;;;4.90;2.83;;;;;;;23.97;63.24;101983.47;5269137;28;20024;-69
2022/08/30 09:44:08;;;;;;;5.95;2.47;;;;;;;24.37;62.47;101986.53;5268718;28;20028;-69
2022/08/30 09:46:52;;;;;;;6.45;3.10;;;;;;;24.43;62.03;101991.13;5271540;28;20043;-69
2022/08/30 09:49:30;;;;;;;4.82;3.20;;;;;;;24.27;60.72;101991.38;5273556;28;20033;-70
2022/08/30 09:52:30;;;;;;;5.68;2.85;;;;;;;24.50;59.50;101985.81;5271621;28;20052;-69
2022/08/30 09:55:39;;;;;;;3.83;2.45;;;;;;;24.70;61.12;101991.31;5269773;28;20499;-70
2022/08/30 09:58:30;;;;;;;6.15;2.47;;;;;;;24.75;60.73;101992.41;5273354;28;20035;-70
2022/08/30 10:01:20;;;;;;;5.53;2.40;;;;;;;24.87;58.33;101994.53;5273500;28;20040;-69
2022/08/30 10:04:09;;;;;;;5.90;2.25;;;;;;;24.85;57.00;101992.06;5277150;28;20024;-69
2022/08/30 10:07:02;;;;;;;5.30;2.00;;;;;;;24.88;57.31;101988.16;5278369;28;20032;-70
2022/08/30 10:09:45;;;;;;;6.03;2.45;;;;;;;24.96;56.22;101990.66;5277863;28;20391;-69
2022/08/30 10:12:30;;;;;;;4.45;2.30;;;;;;;24.82;53.83;102000.50;5278227;28;20054;-69
2022/08/30 10:15:09;;;;;;;3.92;2.30;;;;;;;24.92;53.93;101990.22;5258102;28;20036;-70
2022/08/30 10:17:55;;;;;;;4.65;1.95;;;;;;;24.87;53.22;101987.31;5277828;28;20055;-69
2022/08/30 10:20:41;;;;;;;2.78;1.80;;;;;;;25.05;53.74;101978.78;5280446;28;20031;-70
2022/08/30 10:23:20;;;;;;;5.75;1.83;;;;;;;25.10;52.58;101987.06;5276531;28;20062;-69
2022/08/30 10:26:12;;;;;;;4.70;2.10;;;;;;;25.05;52.34;101984.13;5281108;28;20024;-70
2022/08/30 10:28:55;;;;;;;4.40;1.95;;;;;;;25.13;51.55;101977.81;5279345;28;20020;-70
2022/08/30 10:31:49;;;;;;;5.82;2.17;;;;;;;25.34;50.73;101980.34;5278455;28;20033;-69
2022/08/30 10:34:58;;;;;;;5.07;2.05;;;;;;;25.28;52.30;101973.13;5275235;28;20024;-69
2022/08/30 10:37:34;;;;;;;5.90;1.90;;;;;;;25.21;50.00;101983.81;5188944;28;20041;-70
2022/08/30 10:43:15;;;;;;;4.80;1.60;;;;;;;25.55;50.50;101978.59;5276058;28;20038;-70
2022/08/30 10:45:50;;;;;;;7.97;2.20;;;;;;;25.56;49.95;101978.38;5277297;28;20024;-69
2022/08/30 10:48:31;;;;;;;6.00;1.85;;;;;;;25.81;50.02;101973.31;5278647;28;20069;-70
2022/08/30 10:51:09;;;;;;;6.15;1.90;;;;;;;25.84;48.70;101983.66;5276985;28;20031;-69
2022/08/30 10:53:49;;;;;;;5.05;2.17;;;;;;;25.69;48.92;101975.75;5278258;28;20020;-70
2022/08/30 10:56:25;;;;;;;6.80;1.95;;;;;;;25.71;48.25;101973.66;5278539;28;20035;-69
2022/08/30 10:58:58;;;;;;;4.80;2.20;;;;;;;25.75;48.74;101970.59;5275888;28;20502;-70
2022/08/30 11:01:52;;;;;;;5.00;2.03;;;;;;;25.93;47.47;101968.16;5281707;28;20103;-70
2022/08/30 11:04:38;;;;;;;3.20;1.67;;;;;;;26.03;48.57;101973.97;5276330;28;20031;-70
2022/08/30 11:07:25;;;;;;;8.15;1.67;;;;;;;26.02;47.86;101972.28;5277082;28;20024;-70
2022/08/30 11:10:23;;;;;;;4.70;1.65;;;;;;;26.01;46.97;101973.34;5278919;28;20504;-69
2022/08/30 11:13:00;;;;;;;7.18;2.10;;;;;;;25.88;47.38;101973.34;5276911;28;20021;-69
2022/08/30 11:15:53;;;;;;;3.35;1.50;;;;;;;25.83;47.98;101973.09;5271913;28;20024;-67
2022/08/30 11:18:28;;;;;;;5.95;1.70;;;;;;;25.86;47.29;101972.69;5273716;28;20115;-69
2022/08/30 11:21:24;;;;;;;5.38;1.80;;;;;;;26.28;47.79;101976.03;5272531;28;20502;-70
2022/08/30 11:24:03;;;;;;;5.75;1.52;;;;;;;26.08;45.90;101968.81;5274690;28;20494;-70
2022/08/30 11:26:43;;;;;;;3.92;2.00;;;;;;;26.15;46.80;101966.13;5277148;28;20074;-70
2022/08/30 11:29:41;;;;;;;7.32;1.90;;;;;;;26.39;45.44;101965.50;5273862;28;20415;-70
2022/08/30 11:32:14;;;;;;;5.10;1.80;;;;;;;25.78;45.14;101971.03;5269039;28;20048;-69
2022/08/30 11:34:45;;;;;;;5.47;1.80;;;;;;;25.88;45.61;101967.97;5273485;28;20055;-70
2022/08/30 11:37:36;;;;;;;5.53;1.80;;;;;;;26.04;45.48;101972.09;5273197;28;20032;-70
2022/08/30 11:40:19;;;;;;;5.90;1.70;;;;;;;26.20;46.08;101967.16;5272251;28;20032;-70
2022/08/30 11:42:53;;;;;;;6.57;1.60;;;;;;;25.99;45.44;101970.03;5272167;28;20463;-70
2022/08/30 11:45:24;;;;;;;2.67;1.38;;;;;;;25.85;44.45;101961.13;5265408;28;20403;-70
2022/08/30 11:48:04;;;;;;;4.30;1.93;;;;;;;26.00;45.24;101965.50;5270758;28;20039;-69
2022/08/30 11:50:59;;;;;;;4.50;2.15;;;;;;;26.33;45.52;101946.69;5272360;28;20067;-70
2022/08/30 11:53:44;;;;;;;6.15;2.05;;;;;;;26.34;45.92;101959.09;5271259;28;20029;-70
2022/08/30 11:56:21;;;;;;;5.03;1.98;;;;;;;26.49;45.91;101953.53;5272721;28;20017;-70
2022/08/30 11:59:06;;;;;;;4.95;1.80;;;;;;;26.57;44.30;101943.38;5276225;28;20039;-70
2022/08/30 12:01:38;;;;;;;8.68;2.13;;;;;;;26.42;43.79;101942.75;5276869;28;20094;-70
2022/08/30 12:04:27;;;;;;;4.50;2.23;;;;;;;26.71;44.32;101940.66;5274301;28;20024;-70